Cherry Valley, Ohio
Current Conditions -  °F | °C
As of 7:53 PM on Tuesday 27 Jan 2015 (Local Time) from KHZY Reporting Station
Overcast Overcast  
Wind Chill: 10°   Ceiling: 2100
Heat Index: 17°   Visibility: 9mi
Dew Point: 12°   Wind: 5mph
Humidity: 81%   Direction: 320°NW
Pressure: 30.13"   Gusts: NA
Location:  41.6317°N, 80.577°W
Report Text: KHZY 280053Z AUTO 32004KT 9SM OVC021 M08/M11 A3013 RMK AO2 SNE51 SLP218 P0000 T10831111
Loading
Personal Weather Stations






























Interactive Weather Map New forecast layout! Learn more

10-Day Weather Forecast

Advertisements
Track Severe Weather on mobile